createdAt,value
2023-06-07T00:00:35.494Z,8.57
2023-06-07T00:01:38.713Z,8.63
2023-06-07T00:02:44.077Z,8.90
2023-06-07T00:03:49.081Z,9.07
2023-06-07T00:04:51.631Z,8.82
2023-06-07T00:05:54.052Z,8.90
2023-06-07T00:07:01.722Z,9.38
2023-06-07T00:08:05.311Z,9.00
2023-06-07T00:09:10.932Z,9.10
2023-06-07T00:10:13.652Z,8.93
2023-06-07T00:11:15.990Z,9.25
2023-06-07T00:12:18.441Z,8.73
2023-06-07T00:13:20.667Z,8.75
2023-06-07T00:14:24.281Z,9.30
2023-06-07T00:15:26.733Z,9.35
2023-06-07T00:16:29.913Z,9.00
2023-06-07T00:17:32.640Z,9.48
2023-06-07T00:18:35.062Z,9.27
2023-06-07T00:19:37.383Z,9.82
2023-06-07T00:20:39.604Z,9.07
2023-06-07T00:21:41.984Z,8.82
2023-06-07T00:22:45.184Z,9.13
2023-06-07T00:23:48.150Z,9.25
2023-06-07T00:24:53.497Z,9.10
2023-06-07T00:25:56.004Z,9.38
2023-06-07T00:26:58.407Z,9.85
2023-06-07T00:28:00.865Z,10.00
2023-06-07T00:29:03.145Z,9.93
2023-06-07T00:30:06.432Z,8.95
2023-06-07T00:31:09.374Z,8.88
2023-06-07T00:32:13.020Z,9.07
2023-06-07T00:33:15.328Z,9.43
2023-06-07T00:34:17.734Z,9.63
2023-06-07T00:35:20.042Z,8.88
2023-06-07T00:36:22.717Z,8.55
2023-06-07T00:37:25.180Z,9.63
2023-06-07T00:38:27.446Z,9.25
2023-06-07T00:39:29.691Z,9.10
2023-06-07T00:40:31.941Z,9.50
2023-06-07T00:41:34.416Z,9.57
2023-06-07T00:42:37.048Z,9.43
2023-06-07T00:43:39.288Z,9.75
2023-06-07T00:44:41.529Z,9.27
2023-06-07T00:45:43.784Z,9.27
2023-06-07T00:46:46.454Z,8.90
2023-06-07T00:47:49.152Z,8.88
2023-06-07T00:48:52.888Z,9.10
2023-06-07T00:49:55.722Z,9.40
2023-06-07T00:50:58.292Z,9.75
2023-06-07T00:52:02.088Z,10.32
2023-06-07T00:53:05.877Z,9.10
2023-06-07T00:54:10.046Z,9.48
2023-06-07T00:55:14.352Z,9.25
2023-06-07T00:56:17.139Z,9.00
2023-06-07T00:57:20.349Z,9.00
2023-06-07T00:58:23.993Z,9.38
2023-06-07T00:59:26.351Z,9.18
2023-06-07T01:00:30.005Z,9.45
2023-06-07T01:01:34.819Z,9.07
2023-06-07T01:02:37.640Z,9.52
2023-06-07T01:03:40.192Z,9.52
2023-06-07T01:04:43.447Z,9.93
2023-06-07T01:05:46.005Z,9.48
2023-06-07T01:06:48.750Z,10.35
2023-06-07T01:07:51.436Z,9.70
2023-06-07T01:08:53.801Z,9.60
2023-06-07T01:09:56.973Z,10.90
2023-06-07T01:11:02.807Z,10.77
2023-06-07T01:12:07.675Z,11.02
2023-06-07T01:13:11.328Z,11.32
2023-06-07T01:14:15.358Z,10.88
2023-06-07T01:15:18.619Z,11.10
2023-06-07T01:16:20.992Z,11.38
2023-06-07T01:17:25.766Z,11.65
2023-06-07T01:18:30.003Z,11.48
2023-06-07T01:19:35.799Z,11.40
2023-06-07T01:20:46.872Z,11.85
2023-06-07T01:21:52.502Z,11.15
2023-06-07T01:22:58.445Z,11.73
2023-06-07T01:24:01.116Z,12.13
2023-06-07T01:25:03.585Z,11.48
2023-06-07T01:26:06.082Z,12.35
2023-06-07T01:27:09.251Z,13.13
2023-06-07T01:28:12.654Z,12.60
2023-06-07T01:29:16.724Z,13.32
2023-06-07T01:30:21.869Z,13.63
2023-06-07T01:31:24.721Z,12.75
2023-06-07T01:32:27.520Z,12.75
2023-06-07T01:33:31.790Z,13.40
2023-06-07T01:34:35.486Z,13.52
2023-06-07T01:35:40.733Z,13.32
2023-06-07T01:36:44.559Z,13.30
2023-06-07T01:37:48.237Z,13.27
2023-06-07T01:38:51.527Z,12.90
2023-06-07T01:39:56.028Z,13.13
2023-06-07T01:41:00.769Z,13.90
2023-06-07T01:42:04.633Z,12.43
2023-06-07T01:43:08.035Z,12.13
2023-06-07T01:44:11.826Z,11.52
2023-06-07T01:45:15.025Z,12.95
2023-06-07T01:46:18.305Z,12.13
2023-06-07T01:47:21.784Z,12.30
2023-06-07T01:48:24.432Z,12.98
2023-06-07T01:49:26.692Z,12.05
2023-06-07T01:50:29.868Z,12.57
2023-06-07T01:51:33.606Z,11.65
2023-06-07T01:52:36.158Z,12.20
2023-06-07T01:53:39.590Z,12.65
2023-06-07T01:54:44.233Z,12.07
2023-06-07T01:55:47.393Z,11.85
2023-06-07T01:57:05.509Z,11.18
2023-06-07T01:58:17.497Z,11.80
2023-06-07T01:59:29.955Z,11.57
2023-06-07T02:00:36.436Z,11.75
2023-06-07T02:01:56.005Z,11.20
2023-06-07T02:03:07.691Z,11.32
2023-06-07T02:04:16.441Z,12.27
2023-06-07T02:05:26.660Z,11.90
2023-06-07T02:06:33.524Z,11.60
2023-06-07T02:07:43.497Z,11.63
2023-06-07T02:08:51.593Z,11.50
2023-06-07T02:09:54.539Z,11.43
2023-06-07T02:10:58.714Z,11.10
2023-06-07T02:12:03.940Z,11.45
2023-06-07T02:13:08.428Z,11.18
2023-06-07T02:14:10.932Z,12.20
2023-06-07T02:15:13.772Z,11.35
2023-06-07T02:16:16.848Z,11.77
2023-06-07T02:17:20.969Z,11.45
2023-06-07T02:18:25.819Z,11.30
2023-06-07T02:19:29.530Z,11.65
2023-06-07T02:20:35.625Z,11.43
2023-06-07T02:21:38.869Z,11.35
2023-06-07T02:22:41.146Z,11.18
2023-06-07T02:23:43.727Z,12.05
2023-06-07T02:24:47.430Z,11.70
2023-06-07T02:25:50.801Z,11.25
2023-06-07T02:26:57.050Z,11.55
2023-06-07T02:28:00.107Z,11.45
2023-06-07T02:29:03.786Z,10.98
2023-06-07T02:30:07.624Z,10.40
2023-06-07T02:31:10.693Z,10.77
2023-06-07T02:32:15.408Z,11.23
2023-06-07T02:33:21.035Z,10.27
2023-06-07T02:34:25.902Z,9.93
2023-06-07T02:35:28.138Z,10.25
2023-06-07T02:36:34.829Z,10.60
2023-06-07T02:37:39.329Z,10.52
2023-06-07T02:38:41.574Z,10.48
2023-06-07T02:39:43.835Z,11.15
2023-06-07T02:40:46.166Z,10.07
2023-06-07T02:41:48.683Z,10.82
2023-06-07T02:42:50.980Z,10.60
2023-06-07T02:43:53.728Z,10.38
2023-06-07T02:44:55.913Z,10.75
2023-06-07T02:45:58.163Z,9.80
2023-06-07T02:47:01.036Z,9.75
2023-06-07T02:48:03.627Z,9.77
2023-06-07T02:49:06.685Z,9.55
2023-06-07T02:50:10.159Z,9.75
2023-06-07T02:51:13.949Z,10.18
2023-06-07T02:52:16.398Z,9.73
2023-06-07T02:53:18.929Z,10.40
2023-06-07T02:54:23.381Z,9.50
2023-06-07T02:55:26.319Z,9.68
2023-06-07T02:56:31.140Z,9.65
2023-06-07T02:57:33.946Z,9.88
2023-06-07T02:58:36.239Z,9.25
2023-06-07T02:59:40.708Z,9.48
2023-06-07T03:00:50.980Z,9.73
2023-06-07T03:01:54.883Z,10.05
2023-06-07T03:02:57.485Z,10.20
2023-06-07T03:04:00.300Z,9.50
2023-06-07T03:05:03.055Z,9.80
2023-06-07T03:06:08.602Z,10.32
2023-06-07T03:07:13.198Z,9.35
2023-06-07T03:08:17.813Z,10.60
2023-06-07T03:09:21.607Z,10.75
2023-06-07T03:10:24.153Z,9.57
2023-06-07T03:11:26.795Z,10.60
2023-06-07T03:12:29.715Z,10.60
2023-06-07T03:13:34.300Z,9.60
2023-06-07T03:14:39.404Z,10.27
2023-06-07T03:15:43.544Z,9.30
2023-06-07T03:16:46.826Z,9.90
2023-06-07T03:17:50.923Z,9.85
2023-06-07T03:18:53.868Z,10.57
2023-06-07T03:19:57.926Z,9.48
2023-06-07T03:21:03.429Z,9.63
2023-06-07T03:22:07.443Z,9.38
2023-06-07T03:23:11.921Z,8.75
2023-06-07T03:24:18.256Z,9.38
2023-06-07T03:25:22.142Z,8.90
2023-06-07T03:26:25.280Z,9.55
2023-06-07T03:27:33.558Z,9.25
2023-06-07T03:28:42.273Z,9.10
2023-06-07T03:29:46.064Z,8.73
2023-06-07T03:30:48.609Z,8.57
2023-06-07T03:31:51.341Z,9.15
2023-06-07T03:32:54.900Z,8.68
2023-06-07T03:33:57.774Z,8.98
2023-06-07T03:35:00.690Z,9.48
2023-06-07T03:36:03.025Z,8.95
2023-06-07T03:37:09.779Z,8.98
2023-06-07T03:38:12.869Z,8.85
2023-06-07T03:39:17.389Z,9.77
2023-06-07T03:40:19.852Z,9.07
2023-06-07T03:41:22.951Z,9.10
2023-06-07T03:42:25.555Z,8.77
2023-06-07T03:43:28.263Z,9.30
2023-06-07T03:44:30.760Z,9.98
2023-06-07T03:45:33.197Z,8.75
2023-06-07T03:46:43.332Z,9.07
2023-06-07T03:47:46.409Z,8.55
2023-06-07T03:48:51.830Z,8.45
2023-06-07T03:49:55.360Z,9.40
2023-06-07T03:50:58.493Z,9.20
2023-06-07T03:52:00.886Z,10.20
2023-06-07T03:53:04.948Z,9.40
2023-06-07T03:54:09.410Z,9.60
2023-06-07T03:55:15.226Z,8.63
2023-06-07T03:56:18.762Z,8.45
2023-06-07T03:57:20.986Z,8.70
2023-06-07T03:58:26.005Z,8.38
2023-06-07T03:59:28.796Z,8.88
2023-06-07T04:00:31.876Z,9.35
2023-06-07T04:01:34.927Z,8.55
2023-06-07T04:02:37.324Z,8.63
2023-06-07T04:03:40.674Z,7.88
2023-06-07T04:04:44.377Z,8.05
2023-06-07T04:05:46.924Z,8.10
2023-06-07T04:06:50.084Z,7.72
2023-06-07T04:07:54.305Z,7.68
2023-06-07T04:08:58.202Z,8.32
2023-06-07T04:10:01.244Z,8.63
2023-06-07T04:11:03.754Z,8.45
2023-06-07T04:12:06.764Z,8.05
2023-06-07T04:13:10.061Z,8.25
2023-06-07T04:14:13.632Z,8.50
2023-06-07T04:15:16.521Z,8.85
2023-06-07T04:16:19.105Z,8.43
2023-06-07T04:17:22.660Z,7.80
2023-06-07T04:18:24.918Z,7.88
2023-06-07T04:19:28.448Z,7.65
2023-06-07T04:20:31.656Z,7.97
2023-06-07T04:21:36.115Z,7.72
2023-06-07T04:22:40.344Z,7.15
2023-06-07T04:23:42.929Z,7.47
2023-06-07T04:24:47.418Z,7.13
2023-06-07T04:25:50.469Z,7.57
2023-06-07T04:26:54.529Z,7.43
2023-06-07T04:28:00.758Z,7.35
2023-06-07T04:29:05.597Z,7.40
2023-06-07T04:30:11.938Z,7.32
2023-06-07T04:31:15.511Z,7.13
2023-06-07T04:32:20.594Z,7.03
2023-06-07T04:33:26.056Z,6.90
2023-06-07T04:34:30.386Z,7.15
2023-06-07T04:35:34.808Z,7.07
2023-06-07T04:36:40.711Z,6.43
2023-06-07T04:37:52.718Z,6.63
2023-06-07T04:38:58.729Z,5.93
2023-06-07T04:40:06.801Z,6.82
2023-06-07T04:41:10.060Z,7.45
2023-06-07T04:42:17.978Z,6.18
2023-06-07T04:43:21.285Z,6.80
2023-06-07T04:44:31.552Z,6.60
2023-06-07T04:45:42.458Z,6.13
2023-06-07T04:46:50.248Z,5.95
2023-06-07T04:47:53.553Z,6.22
2023-06-07T04:48:57.197Z,6.15
2023-06-07T04:50:01.545Z,6.32
2023-06-07T04:51:06.062Z,6.18
2023-06-07T04:52:15.266Z,6.40
2023-06-07T04:53:22.772Z,5.95
2023-06-07T04:54:25.809Z,6.22
2023-06-07T04:55:35.354Z,5.90
2023-06-07T04:56:38.873Z,5.90
2023-06-07T04:57:41.899Z,6.50
2023-06-07T04:58:44.165Z,6.72
2023-06-07T04:59:52.219Z,6.28
2023-06-07T05:00:59.864Z,6.47
2023-06-07T05:02:03.419Z,6.40
2023-06-07T05:03:09.836Z,5.97
2023-06-07T05:04:13.060Z,6.30
2023-06-07T05:05:23.589Z,6.47
2023-06-07T05:06:29.651Z,6.50
2023-06-07T05:07:33.743Z,7.07
2023-06-07T05:08:38.930Z,5.57
2023-06-07T05:09:41.290Z,5.38
2023-06-07T05:10:45.123Z,5.78
2023-06-07T05:11:47.568Z,7.03
2023-06-07T05:12:50.060Z,5.65
2023-06-07T05:13:53.304Z,6.60
2023-06-07T05:14:55.685Z,5.68
2023-06-07T05:15:58.921Z,5.85
2023-06-07T05:17:02.750Z,5.35
2023-06-07T05:18:09.958Z,5.60
2023-06-07T05:19:12.942Z,6.38
2023-06-07T05:20:18.313Z,5.05
2023-06-07T05:21:21.529Z,4.65
2023-06-07T05:22:24.431Z,4.80
2023-06-07T05:23:28.079Z,4.97
2023-06-07T05:24:32.318Z,5.15
2023-06-07T05:25:34.747Z,5.28
2023-06-07T05:26:37.689Z,5.93
2023-06-07T05:27:41.560Z,5.28
2023-06-07T05:28:43.892Z,5.40
2023-06-07T05:29:47.551Z,5.65
2023-06-07T05:30:50.996Z,5.50
2023-06-07T05:31:54.550Z,5.57
2023-06-07T05:32:57.491Z,4.97
2023-06-07T05:33:59.874Z,5.30
2023-06-07T05:35:04.117Z,5.78
2023-06-07T05:36:07.160Z,5.47
2023-06-07T05:37:11.086Z,5.13
2023-06-07T05:38:14.215Z,5.65
2023-06-07T05:39:17.295Z,5.82
2023-06-07T05:40:21.217Z,5.22
2023-06-07T05:41:23.960Z,5.50
2023-06-07T05:42:26.332Z,5.70
2023-06-07T05:43:29.575Z,4.82
2023-06-07T05:44:32.152Z,5.63
2023-06-07T05:45:35.634Z,5.68
2023-06-07T05:46:38.504Z,6.10
2023-06-07T05:47:42.360Z,5.05
2023-06-07T05:48:45.010Z,5.53
2023-06-07T05:49:51.048Z,5.22
2023-06-07T05:50:53.377Z,5.63
2023-06-07T05:51:55.782Z,6.13
2023-06-07T05:52:58.579Z,6.20
2023-06-07T05:54:01.414Z,6.13
2023-06-07T05:55:04.270Z,5.28
2023-06-07T05:56:06.671Z,6.20
2023-06-07T05:57:09.106Z,5.25
2023-06-07T05:58:11.360Z,5.70
2023-06-07T05:59:13.606Z,5.82
2023-06-07T06:00:16.300Z,5.95
2023-06-07T06:01:18.742Z,5.35
2023-06-07T06:02:21.937Z,5.45
2023-06-07T06:03:27.145Z,5.40
2023-06-07T06:04:29.608Z,5.28
2023-06-07T06:05:31.950Z,5.45
2023-06-07T06:06:34.955Z,5.70
2023-06-07T06:07:37.273Z,5.15
2023-06-07T06:08:39.844Z,5.10
2023-06-07T06:09:42.616Z,5.10
2023-06-07T06:10:48.025Z,5.03
2023-06-07T06:11:51.227Z,5.25
2023-06-07T06:12:54.120Z,5.25
2023-06-07T06:13:56.559Z,4.90
2023-06-07T06:14:59.443Z,5.32
2023-06-07T06:16:01.714Z,5.03
2023-06-07T06:17:04.294Z,4.97
2023-06-07T06:18:06.926Z,4.95
2023-06-07T06:19:09.388Z,4.70
2023-06-07T06:20:13.328Z,5.25
2023-06-07T06:21:15.963Z,5.40
2023-06-07T06:22:18.394Z,5.18
2023-06-07T06:23:21.115Z,5.07
2023-06-07T06:24:25.714Z,5.53
2023-06-07T06:25:29.729Z,5.00
2023-06-07T06:26:31.985Z,4.97
2023-06-07T06:27:34.496Z,5.70
2023-06-07T06:28:37.041Z,5.47
2023-06-07T06:29:39.704Z,4.93
2023-06-07T06:30:41.982Z,5.95
2023-06-07T06:31:45.005Z,6.03
2023-06-07T06:32:48.020Z,5.15
2023-06-07T06:33:51.142Z,5.93
2023-06-07T06:34:53.609Z,5.20
2023-06-07T06:35:55.849Z,5.40
2023-06-07T06:37:01.950Z,4.78
2023-06-07T06:38:04.498Z,5.40
2023-06-07T06:39:08.974Z,5.10
2023-06-07T06:40:11.609Z,4.97
2023-06-07T06:41:14.328Z,5.65
2023-06-07T06:42:16.659Z,5.40
2023-06-07T06:43:40.569Z,6.25
2023-06-07T06:44:43.499Z,5.80
2023-06-07T06:45:45.807Z,5.35
2023-06-07T06:46:50.034Z,5.85
2023-06-07T06:47:52.779Z,5.05
2023-06-07T06:49:10.825Z,4.93
2023-06-07T06:50:30.947Z,5.15
2023-06-07T06:52:37.067Z,5.18
2023-06-07T06:53:39.344Z,4.97
2023-06-07T06:54:42.033Z,5.18
2023-06-07T06:55:44.266Z,5.25
2023-06-07T06:56:46.871Z,5.57
2023-06-07T06:57:49.085Z,5.30
2023-06-07T06:58:52.828Z,4.65
2023-06-07T06:59:55.377Z,5.25
2023-06-07T07:00:57.611Z,5.22
2023-06-07T07:02:01.070Z,5.35
2023-06-07T07:03:03.659Z,5.03
2023-06-07T07:04:06.228Z,4.85
2023-06-07T07:05:09.232Z,5.30
2023-06-07T07:06:11.503Z,5.88
2023-06-07T07:07:13.818Z,4.75
2023-06-07T07:08:16.241Z,4.93
2023-06-07T07:09:18.590Z,4.75
2023-06-07T07:10:21.335Z,4.70
2023-06-07T07:11:23.678Z,4.65
2023-06-07T07:12:26.885Z,5.03
2023-06-07T07:13:29.564Z,4.93
2023-06-07T07:14:31.913Z,5.40
2023-06-07T07:15:34.388Z,4.85
2023-06-07T07:16:38.821Z,4.60
2023-06-07T07:17:49.222Z,4.82
2023-06-07T07:18:51.831Z,5.18
2023-06-07T07:19:55.018Z,4.90
2023-06-07T07:20:57.598Z,5.70
2023-06-07T07:21:59.882Z,4.75
2023-06-07T07:23:04.124Z,5.20
2023-06-07T07:24:07.177Z,5.53
2023-06-07T07:25:10.478Z,4.63
2023-06-07T07:26:12.813Z,5.20
2023-06-07T07:27:15.052Z,4.75
2023-06-07T07:28:17.494Z,4.85
2023-06-07T07:29:20.468Z,4.43
2023-06-07T07:30:23.042Z,5.05
2023-06-07T07:31:25.601Z,4.80
2023-06-07T07:32:27.930Z,5.20
2023-06-07T07:33:30.251Z,5.07
2023-06-07T07:34:32.573Z,4.50
2023-06-07T07:35:35.110Z,5.13
2023-06-07T07:36:37.366Z,5.32
2023-06-07T07:37:40.861Z,5.30
2023-06-07T07:38:47.028Z,4.82
2023-06-07T07:39:49.508Z,5.40
2023-06-07T07:40:52.000Z,5.38
2023-06-07T07:41:54.742Z,5.00
2023-06-07T07:42:57.174Z,5.22
2023-06-07T07:43:59.496Z,4.72
2023-06-07T07:45:02.156Z,4.80
2023-06-07T07:46:04.850Z,4.80
2023-06-07T07:47:08.407Z,4.60
2023-06-07T07:48:11.060Z,5.05
2023-06-07T07:49:13.365Z,4.85
2023-06-07T07:50:17.581Z,5.18
2023-06-07T07:51:21.067Z,5.38
2023-06-07T07:52:23.859Z,4.80
2023-06-07T07:53:26.377Z,4.63
2023-06-07T07:54:30.640Z,4.50
2023-06-07T07:55:33.877Z,4.63
2023-06-07T07:56:36.557Z,5.15
2023-06-07T07:57:38.844Z,4.75
2023-06-07T07:58:41.297Z,4.68
2023-06-07T07:59:44.516Z,5.13
2023-06-07T08:00:46.953Z,4.85
2023-06-07T08:01:50.606Z,5.18
2023-06-07T08:02:52.920Z,9.40
2023-06-07T08:03:57.175Z,5.65
2023-06-07T08:05:10.170Z,4.60
2023-06-07T08:06:12.840Z,4.90
2023-06-07T08:07:18.496Z,5.28
2023-06-07T08:08:20.869Z,4.88
2023-06-07T08:09:23.734Z,4.78
2023-06-07T08:10:26.622Z,4.65
2023-06-07T08:11:29.060Z,4.93
2023-06-07T08:12:33.483Z,5.50
2023-06-07T08:13:37.194Z,5.28
2023-06-07T08:14:39.717Z,4.72
2023-06-07T08:15:42.095Z,7.10
2023-06-07T08:16:45.471Z,4.78
2023-06-07T08:17:50.641Z,5.15
2023-06-07T08:18:58.019Z,4.72
2023-06-07T08:20:00.622Z,4.90
2023-06-07T08:21:03.890Z,4.32
2023-06-07T08:22:06.758Z,4.57
2023-06-07T08:23:10.772Z,4.63
2023-06-07T08:24:14.551Z,4.45
2023-06-07T08:25:17.969Z,4.80
2023-06-07T08:26:20.402Z,4.53
2023-06-07T08:27:23.155Z,4.07
2023-06-07T08:28:26.324Z,4.63
2023-06-07T08:29:28.567Z,4.22
2023-06-07T08:30:31.109Z,4.40
2023-06-07T08:31:33.713Z,4.38
2023-06-07T08:32:36.321Z,4.18
2023-06-07T08:33:39.031Z,4.50
2023-06-07T08:34:41.742Z,4.10
2023-06-07T08:35:44.771Z,4.25
2023-06-07T08:36:49.412Z,4.80
2023-06-07T08:37:51.755Z,4.40
2023-06-07T08:38:54.101Z,4.35
2023-06-07T08:39:56.552Z,4.93
2023-06-07T08:41:01.901Z,4.68
2023-06-07T08:42:04.253Z,4.65
2023-06-07T08:43:08.615Z,4.43
2023-06-07T08:44:11.834Z,4.55
2023-06-07T08:45:16.332Z,4.00
2023-06-07T08:46:19.048Z,4.20
2023-06-07T08:47:23.259Z,3.90
2023-06-07T08:48:26.449Z,4.28
2023-06-07T08:49:34.580Z,4.68
2023-06-07T08:50:37.987Z,4.13
2023-06-07T08:51:43.164Z,4.25
2023-06-07T08:52:52.567Z,4.00
2023-06-07T08:53:57.250Z,4.20
2023-06-07T08:55:04.956Z,4.55
2023-06-07T08:56:08.131Z,4.68
2023-06-07T08:57:11.399Z,4.47
2023-06-07T08:58:16.694Z,4.05
2023-06-07T08:59:20.037Z,4.15
2023-06-07T09:00:23.948Z,4.05
2023-06-07T09:01:32.314Z,4.20
2023-06-07T09:02:35.120Z,3.80
2023-06-07T09:03:37.597Z,4.80
2023-06-07T09:04:43.821Z,3.65
2023-06-07T09:05:48.121Z,6.80
2023-06-07T09:06:52.397Z,3.55
2023-06-07T09:07:54.880Z,3.92
2023-06-07T09:08:57.792Z,4.18
2023-06-07T09:10:00.276Z,4.30
2023-06-07T09:11:02.531Z,3.80
2023-06-07T09:12:06.748Z,4.28
2023-06-07T09:13:09.346Z,4.55
2023-06-07T09:14:12.759Z,4.00
2023-06-07T09:15:22.654Z,4.13
2023-06-07T09:16:25.863Z,3.85
2023-06-07T09:17:56.591Z,3.95
2023-06-07T09:18:58.952Z,4.40
2023-06-07T09:20:01.435Z,4.25
2023-06-07T09:21:20.286Z,4.50
2023-06-07T09:22:26.859Z,4.03
2023-06-07T09:23:40.515Z,4.32
2023-06-07T09:24:43.364Z,4.32
2023-06-07T09:25:47.064Z,3.90
2023-06-07T09:26:49.403Z,4.45
2023-06-07T09:27:52.674Z,4.20
2023-06-07T09:28:55.199Z,4.30
2023-06-07T09:30:06.799Z,4.00
2023-06-07T09:31:11.532Z,4.25
2023-06-07T09:32:26.539Z,4.32
2023-06-07T09:33:36.845Z,4.47
2023-06-07T09:34:39.261Z,4.18
2023-06-07T09:35:41.622Z,4.03
2023-06-07T09:36:52.720Z,4.60
2023-06-07T09:38:00.341Z,4.15
2023-06-07T09:39:21.483Z,4.32
2023-06-07T09:40:24.576Z,4.68
2023-06-07T09:41:33.362Z,4.15
2023-06-07T09:42:35.824Z,4.47
2023-06-07T09:43:59.832Z,5.03
2023-06-07T09:45:16.733Z,5.32
2023-06-07T09:46:22.589Z,5.55
2023-06-07T09:47:25.532Z,8.32
2023-06-07T09:48:28.427Z,5.25
2023-06-07T09:49:36.020Z,4.55
2023-06-07T09:50:38.948Z,9.38
2023-06-07T09:51:44.291Z,10.25
2023-06-07T09:52:56.539Z,5.78
2023-06-07T09:54:06.698Z,5.10
2023-06-07T09:55:26.165Z,3.63
2023-06-07T09:56:28.808Z,4.45
2023-06-07T09:57:36.710Z,4.45
2023-06-07T09:58:39.010Z,4.25
2023-06-07T09:59:59.514Z,4.13
2023-06-07T10:01:02.260Z,4.32
2023-06-07T10:02:25.611Z,4.53
2023-06-07T10:03:28.608Z,4.50
2023-06-07T10:04:33.312Z,7.38
2023-06-07T10:05:36.180Z,6.00
2023-06-07T10:06:41.695Z,4.85
2023-06-07T10:07:45.861Z,5.30
2023-06-07T10:08:48.723Z,4.38
2023-06-07T10:09:54.973Z,4.80
2023-06-07T10:10:58.541Z,4.47
2023-06-07T10:12:00.981Z,6.38
2023-06-07T10:13:05.672Z,5.57
2023-06-07T10:14:12.392Z,5.00
2023-06-07T10:15:16.801Z,5.43
2023-06-07T10:16:21.156Z,6.38
2023-06-07T10:17:33.984Z,5.40
2023-06-07T10:18:38.327Z,4.57
2023-06-07T10:19:45.802Z,4.20
2023-06-07T10:21:00.667Z,4.90
2023-06-07T10:22:06.880Z,5.90
2023-06-07T10:23:15.215Z,4.60
2023-06-07T10:24:30.989Z,4.82
2023-06-07T10:25:45.089Z,5.20
2023-06-07T10:27:00.944Z,6.05
2023-06-07T10:28:20.876Z,4.85
2023-06-07T10:29:40.149Z,4.78
2023-06-07T10:30:49.472Z,4.85
2023-06-07T10:32:01.761Z,4.95
2023-06-07T10:33:09.283Z,4.75
2023-06-07T10:34:14.356Z,4.88
2023-06-07T10:35:18.424Z,4.80
2023-06-07T10:36:24.664Z,5.57
2023-06-07T10:37:32.084Z,5.20
2023-06-07T10:38:35.007Z,6.55
2023-06-07T10:39:39.302Z,5.25
2023-06-07T10:40:42.288Z,5.10
2023-06-07T10:41:45.218Z,4.63
2023-06-07T10:42:48.101Z,4.60
2023-06-07T10:43:51.321Z,4.60
2023-06-07T10:44:56.076Z,4.93
2023-06-07T10:46:17.788Z,4.72
2023-06-07T10:47:23.007Z,5.20
2023-06-07T10:48:35.605Z,5.15
2023-06-07T10:49:38.638Z,5.10
2023-06-07T10:50:48.710Z,4.75
2023-06-07T10:52:00.242Z,4.47
2023-06-07T10:53:03.495Z,4.70
2023-06-07T10:54:06.017Z,4.93
2023-06-07T10:55:33.281Z,5.45
2023-06-07T10:56:37.498Z,5.78
2023-06-07T10:57:40.366Z,4.53
2023-06-07T10:58:42.722Z,5.15
2023-06-07T10:59:45.216Z,4.80
2023-06-07T11:00:48.104Z,4.43
2023-06-07T11:01:52.199Z,4.45
2023-06-07T11:03:10.068Z,5.05
2023-06-07T11:04:41.677Z,4.78
2023-06-07T11:05:54.263Z,4.68
2023-06-07T11:07:15.698Z,4.85
2023-06-07T11:08:32.335Z,5.20
2023-06-07T11:09:35.179Z,5.28
2023-06-07T11:10:37.529Z,5.00
2023-06-07T11:11:40.129Z,5.03
2023-06-07T11:12:46.476Z,5.05
2023-06-07T11:13:54.866Z,5.03
2023-06-07T11:15:19.356Z,5.15
2023-06-07T11:16:25.652Z,4.85
2023-06-07T11:18:00.242Z,4.35
2023-06-07T11:19:10.390Z,5.35
2023-06-07T11:20:12.708Z,5.30
2023-06-07T11:21:15.219Z,5.43
2023-06-07T11:22:17.842Z,5.70
2023-06-07T11:23:27.068Z,9.98
2023-06-07T11:24:29.965Z,7.63
2023-06-07T11:25:38.409Z,5.65
2023-06-07T11:26:41.508Z,6.13
2023-06-07T11:27:44.488Z,8.15
2023-06-07T11:28:47.377Z,21.48
2023-06-07T11:29:52.228Z,9.68
2023-06-07T11:30:55.163Z,5.80
2023-06-07T11:32:02.717Z,5.40
2023-06-07T11:33:05.938Z,4.93
2023-06-07T11:34:10.895Z,5.63
2023-06-07T11:35:16.592Z,5.38
2023-06-07T11:36:20.699Z,6.43
2023-06-07T11:37:24.152Z,7.63
2023-06-07T11:38:29.798Z,6.95
2023-06-07T11:39:36.056Z,6.00
2023-06-07T11:40:38.411Z,5.40
2023-06-07T11:41:40.670Z,5.18
2023-06-07T11:42:42.930Z,9.02
2023-06-07T11:43:47.390Z,5.30
2023-06-07T11:44:49.741Z,5.20
2023-06-07T11:45:56.380Z,5.07
2023-06-07T11:46:59.404Z,5.10
2023-06-07T11:48:02.555Z,4.88
2023-06-07T11:49:09.085Z,4.90
2023-06-07T11:50:11.425Z,5.10
2023-06-07T11:51:13.788Z,5.20
2023-06-07T11:52:16.979Z,4.97
2023-06-07T11:53:19.341Z,4.70
2023-06-07T11:54:25.063Z,4.70
2023-06-07T11:55:27.611Z,4.72
2023-06-07T11:56:31.685Z,4.70
2023-06-07T11:57:38.234Z,4.88
2023-06-07T11:58:41.926Z,4.63
2023-06-07T11:59:45.366Z,5.30
2023-06-07T12:00:48.909Z,4.50
2023-06-07T12:01:53.709Z,4.70
2023-06-07T12:02:56.261Z,4.88
2023-06-07T12:03:59.256Z,4.47
2023-06-07T12:05:01.740Z,4.43
2023-06-07T12:06:05.891Z,5.15
2023-06-07T12:07:23.035Z,4.53
2023-06-07T12:08:32.715Z,4.93
2023-06-07T12:09:41.760Z,4.45
2023-06-07T12:10:56.538Z,4.32
2023-06-07T12:11:59.070Z,4.50
2023-06-07T12:13:27.824Z,4.07
2023-06-07T12:14:34.094Z,4.65
2023-06-07T12:15:46.279Z,3.95
2023-06-07T12:16:49.410Z,4.28
2023-06-07T12:17:52.611Z,4.20
2023-06-07T12:18:55.131Z,4.15
2023-06-07T12:20:10.784Z,4.25
2023-06-07T12:21:14.166Z,4.43
2023-06-07T12:22:16.484Z,4.40
2023-06-07T12:23:21.967Z,4.63
2023-06-07T12:24:24.397Z,4.32
2023-06-07T12:25:27.138Z,3.80
2023-06-07T12:26:32.225Z,3.88
2023-06-07T12:27:35.506Z,4.20
2023-06-07T12:28:40.072Z,4.05
2023-06-07T12:29:42.424Z,4.80
2023-06-07T12:30:48.131Z,4.45
2023-06-07T12:31:53.132Z,5.40
2023-06-07T12:33:00.277Z,4.30
2023-06-07T12:34:06.722Z,4.30
2023-06-07T12:35:12.441Z,5.68
2023-06-07T12:36:17.797Z,4.45
2023-06-07T12:37:20.151Z,4.15
2023-06-07T12:38:23.286Z,3.92
2023-06-07T12:39:30.527Z,4.00
2023-06-07T12:40:34.301Z,4.53
2023-06-07T12:41:37.564Z,4.05
2023-06-07T12:42:42.627Z,3.90
2023-06-07T12:43:49.100Z,4.57
2023-06-07T12:44:55.608Z,3.97
2023-06-07T12:45:59.174Z,4.07
2023-06-07T12:47:01.834Z,3.90
2023-06-07T12:48:05.090Z,4.20
2023-06-07T12:49:07.385Z,4.38
2023-06-07T12:50:10.406Z,5.07
2023-06-07T12:52:36.659Z,4.82
2023-06-07T12:53:39.785Z,4.35
2023-06-07T12:54:42.516Z,4.32
2023-06-07T12:55:44.741Z,4.40
2023-06-07T12:56:47.720Z,4.28
2023-06-07T12:57:50.065Z,4.13
2023-06-07T12:58:52.670Z,4.05
2023-06-07T12:59:55.134Z,4.07
2023-06-07T13:00:57.791Z,4.15
2023-06-07T13:02:00.489Z,5.03
2023-06-07T13:03:02.890Z,4.30
2023-06-07T13:04:05.723Z,4.70
2023-06-07T13:05:11.002Z,4.38
2023-06-07T13:06:13.286Z,4.15
2023-06-07T13:07:15.985Z,4.28
2023-06-07T13:08:18.757Z,4.10
2023-06-07T13:09:21.384Z,4.53
2023-06-07T13:10:25.476Z,4.05
2023-06-07T13:11:28.878Z,4.13
2023-06-07T13:12:32.288Z,4.45
2023-06-07T13:13:34.808Z,4.25
2023-06-07T13:14:37.680Z,4.30
2023-06-07T13:15:40.292Z,4.32
2023-06-07T13:16:44.513Z,4.35
2023-06-07T13:17:46.976Z,4.03
2023-06-07T13:18:49.737Z,4.78
2023-06-07T13:19:52.375Z,4.80
2023-06-07T13:20:54.862Z,4.80
2023-06-07T13:21:57.275Z,4.82
2023-06-07T13:22:59.659Z,4.82
2023-06-07T13:24:02.114Z,4.75
2023-06-07T13:25:04.540Z,4.75
2023-06-07T13:26:06.991Z,5.00
2023-06-07T13:27:10.091Z,4.95
2023-06-07T13:28:13.007Z,4.28
2023-06-07T13:29:15.247Z,4.65
2023-06-07T13:30:17.607Z,4.70
2023-06-07T13:31:20.223Z,4.93
2023-06-07T13:32:22.757Z,4.97
2023-06-07T13:33:25.025Z,4.65
2023-06-07T13:34:27.506Z,4.80
2023-06-07T13:35:33.671Z,5.10
2023-06-07T13:36:38.472Z,5.28
2023-06-07T13:37:41.254Z,5.35
2023-06-07T13:38:43.611Z,4.82
2023-06-07T13:39:45.984Z,5.25
2023-06-07T13:40:48.260Z,4.30
2023-06-07T13:41:51.662Z,4.53
2023-06-07T13:42:53.945Z,4.82
2023-06-07T13:45:02.448Z,4.53
2023-06-07T13:46:05.229Z,4.22
2023-06-07T13:47:08.972Z,4.90
2023-06-07T13:48:12.998Z,4.78
2023-06-07T13:49:15.926Z,4.80
2023-06-07T13:50:18.624Z,4.35
2023-06-07T13:51:20.906Z,4.85
2023-06-07T13:52:23.749Z,5.00
2023-06-07T13:53:28.381Z,4.72
2023-06-07T13:54:33.191Z,5.10
2023-06-07T13:55:35.663Z,4.95
2023-06-07T13:56:37.934Z,4.80
2023-06-07T13:57:40.322Z,4.97
2023-06-07T13:58:42.754Z,4.68
2023-06-07T13:59:45.827Z,6.57
2023-06-07T14:00:48.321Z,5.30
2023-06-07T14:01:50.913Z,5.25
2023-06-07T14:02:53.862Z,4.80
2023-06-07T14:03:58.982Z,5.55
2023-06-07T14:05:02.963Z,5.57
2023-06-07T14:06:05.704Z,5.22
2023-06-07T14:07:08.019Z,5.07
2023-06-07T14:08:10.775Z,5.28
2023-06-07T14:09:13.339Z,5.00
2023-06-07T14:10:16.446Z,5.07
2023-06-07T14:11:19.593Z,5.63
2023-06-07T14:12:22.071Z,5.55
2023-06-07T14:13:24.373Z,7.32
2023-06-07T14:14:26.696Z,6.80
2023-06-07T14:15:29.054Z,7.28
2023-06-07T14:16:31.680Z,6.75
2023-06-07T14:17:34.010Z,6.07
2023-06-07T14:18:37.050Z,5.13